sensor_id;sensor_type;location;lat;lon;timestamp;P1;durP1;ratioP1;P2;durP2;ratioP2
14094;SDS011;18096;48.142;16.290;2023-02-24T00:01:31;21.40;;;14.30;;
14094;SDS011;18096;48.142;16.290;2023-02-24T00:04:02;21.58;;;14.27;;
14094;SDS011;18096;48.142;16.290;2023-02-24T00:06:31;25.70;;;14.30;;
14094;SDS011;18096;48.142;16.290;2023-02-24T00:09:04;28.90;;;15.10;;
14094;SDS011;18096;48.142;16.290;2023-02-24T00:11:42;30.58;;;14.68;;
14094;SDS011;18096;48.142;16.290;2023-02-24T00:14:32;28.00;;;15.17;;
14094;SDS011;18096;48.142;16.290;2023-02-24T00:16:59;21.80;;;14.43;;
14094;SDS011;18096;48.142;16.290;2023-02-24T00:19:26;25.40;;;14.60;;
14094;SDS011;18096;48.142;16.290;2023-02-24T00:21:53;22.52;;;14.82;;
14094;SDS011;18096;48.142;16.290;2023-02-24T00:24:23;24.42;;;13.88;;
14094;SDS011;18096;48.142;16.290;2023-02-24T00:26:53;24.00;;;14.57;;
14094;SDS011;18096;48.142;16.290;2023-02-24T00:29:20;35.90;;;14.27;;
14094;SDS011;18096;48.142;16.290;2023-02-24T00:31:53;29.23;;;14.68;;
14094;SDS011;18096;48.142;16.290;2023-02-24T00:34:30;29.13;;;14.60;;
14094;SDS011;18096;48.142;16.290;2023-02-24T00:36:58;24.45;;;13.68;;
14094;SDS011;18096;48.142;16.290;2023-02-24T00:39:24;24.95;;;13.50;;
14094;SDS011;18096;48.142;16.290;2023-02-24T00:41:59;23.45;;;13.50;;
14094;SDS011;18096;48.142;16.290;2023-02-24T00:44:34;20.33;;;12.90;;
14094;SDS011;18096;48.142;16.290;2023-02-24T00:47:18;23.75;;;12.85;;
14094;SDS011;18096;48.142;16.290;2023-02-24T00:49:44;27.00;;;13.45;;
14094;SDS011;18096;48.142;16.290;2023-02-24T00:52:11;24.80;;;12.80;;
14094;SDS011;18096;48.142;16.290;2023-02-24T00:54:40;23.92;;;14.10;;
14094;SDS011;18096;48.142;16.290;2023-02-24T00:57:07;21.73;;;13.10;;
14094;SDS011;18096;48.142;16.290;2023-02-24T00:59:33;19.08;;;12.88;;
14094;SDS011;18096;48.142;16.290;2023-02-24T01:02:00;18.27;;;13.18;;
14094;SDS011;18096;48.142;16.290;2023-02-24T01:04:27;18.50;;;12.60;;
14094;SDS011;18096;48.142;16.290;2023-02-24T01:06:54;16.75;;;12.10;;
14094;SDS011;18096;48.142;16.290;2023-02-24T01:09:24;21.92;;;13.45;;
14094;SDS011;18096;48.142;16.290;2023-02-24T01:11:52;20.80;;;13.90;;
14094;SDS011;18096;48.142;16.290;2023-02-24T01:14:36;24.98;;;14.10;;
14094;SDS011;18096;48.142;16.290;2023-02-24T01:17:04;23.30;;;14.00;;
14094;SDS011;18096;48.142;16.290;2023-02-24T01:19:31;20.85;;;13.07;;
14094;SDS011;18096;48.142;16.290;2023-02-24T01:21:59;24.00;;;13.18;;
14094;SDS011;18096;48.142;16.290;2023-02-24T01:24:27;27.65;;;13.00;;
14094;SDS011;18096;48.142;16.290;2023-02-24T01:26:55;19.88;;;13.60;;
14094;SDS011;18096;48.142;16.290;2023-02-24T01:29:21;26.87;;;12.60;;
14094;SDS011;18096;48.142;16.290;2023-02-24T01:31:47;24.98;;;14.02;;
14094;SDS011;18096;48.142;16.290;2023-02-24T01:34:15;24.13;;;14.10;;
14094;SDS011;18096;48.142;16.290;2023-02-24T01:36:42;19.98;;;13.32;;
14094;SDS011;18096;48.142;16.290;2023-02-24T01:39:08;26.38;;;13.77;;
14094;SDS011;18096;48.142;16.290;2023-02-24T01:41:39;28.10;;;14.57;;
14094;SDS011;18096;48.142;16.290;2023-02-24T01:44:56;24.88;;;13.55;;
14094;SDS011;18096;48.142;16.290;2023-02-24T01:46:56;25.23;;;14.00;;
14094;SDS011;18096;48.142;16.290;2023-02-24T01:52:04;23.90;;;14.20;;
14094;SDS011;18096;48.142;16.290;2023-02-24T01:54:34;29.38;;;15.23;;
14094;SDS011;18096;48.142;16.290;2023-02-24T01:57:07;24.67;;;15.05;;
14094;SDS011;18096;48.142;16.290;2023-02-24T01:59:41;25.23;;;15.45;;
14094;SDS011;18096;48.142;16.290;2023-02-24T02:02:08;28.55;;;17.08;;
14094;SDS011;18096;48.142;16.290;2023-02-24T02:04:37;25.23;;;15.20;;
14094;SDS011;18096;48.142;16.290;2023-02-24T02:07:07;24.15;;;15.18;;
14094;SDS011;18096;48.142;16.290;2023-02-24T02:09:35;27.35;;;15.20;;
14094;SDS011;18096;48.142;16.290;2023-02-24T02:12:02;30.83;;;15.85;;
14094;SDS011;18096;48.142;16.290;2023-02-24T02:14:28;27.90;;;16.30;;
14094;SDS011;18096;48.142;16.290;2023-02-24T02:19:55;24.40;;;14.50;;
14094;SDS011;18096;48.142;16.290;2023-02-24T02:31:28;24.75;;;15.70;;
14094;SDS011;18096;48.142;16.290;2023-02-24T02:34:04;29.98;;;15.13;;
14094;SDS011;18096;48.142;16.290;2023-02-24T02:39:14;22.90;;;15.00;;
14094;SDS011;18096;48.142;16.290;2023-02-24T02:41:53;24.80;;;15.15;;
14094;SDS011;18096;48.142;16.290;2023-02-24T02:46:59;28.13;;;15.32;;
14094;SDS011;18096;48.142;16.290;2023-02-24T02:49:31;29.58;;;17.23;;
14094;SDS011;18096;48.142;16.290;2023-02-24T02:52:06;28.90;;;14.90;;
14094;SDS011;18096;48.142;16.290;2023-02-24T02:57:31;31.70;;;15.93;;
14094;SDS011;18096;48.142;16.290;2023-02-24T03:00:07;27.48;;;15.82;;
14094;SDS011;18096;48.142;16.290;2023-02-24T03:02:46;24.17;;;15.15;;
14094;SDS011;18096;48.142;16.290;2023-02-24T03:05:15;24.40;;;15.38;;
14094;SDS011;18096;48.142;16.290;2023-02-24T03:07:46;30.65;;;16.75;;
14094;SDS011;18096;48.142;16.290;2023-02-24T03:10:20;26.17;;;15.82;;
14094;SDS011;18096;48.142;16.290;2023-02-24T03:12:52;28.60;;;15.50;;
14094;SDS011;18096;48.142;16.290;2023-02-24T03:15:20;25.42;;;16.33;;
14094;SDS011;18096;48.142;16.290;2023-02-24T03:18:00;27.27;;;15.93;;
14094;SDS011;18096;48.142;16.290;2023-02-24T03:20:44;28.45;;;16.05;;
14094;SDS011;18096;48.142;16.290;2023-02-24T03:23:13;29.42;;;15.30;;
14094;SDS011;18096;48.142;16.290;2023-02-24T03:25:55;24.80;;;15.65;;
14094;SDS011;18096;48.142;16.290;2023-02-24T03:28:33;28.77;;;16.17;;
14094;SDS011;18096;48.142;16.290;2023-02-24T03:33:40;24.73;;;15.77;;
14094;SDS011;18096;48.142;16.290;2023-02-24T03:36:13;23.13;;;15.05;;
14094;SDS011;18096;48.142;16.290;2023-02-24T03:38:39;25.05;;;15.93;;
14094;SDS011;18096;48.142;16.290;2023-02-24T03:41:06;27.08;;;15.80;;
14094;SDS011;18096;48.142;16.290;2023-02-24T03:43:35;29.00;;;16.88;;
14094;SDS011;18096;48.142;16.290;2023-02-24T03:46:08;27.40;;;17.15;;
14094;SDS011;18096;48.142;16.290;2023-02-24T03:48:38;29.98;;;17.83;;
14094;SDS011;18096;48.142;16.290;2023-02-24T03:51:15;33.78;;;17.25;;
14094;SDS011;18096;48.142;16.290;2023-02-24T03:56:43;31.02;;;18.13;;
14094;SDS011;18096;48.142;16.290;2023-02-24T04:02:46;33.90;;;19.75;;
14094;SDS011;18096;48.142;16.290;2023-02-24T04:05:20;30.83;;;19.53;;
14094;SDS011;18096;48.142;16.290;2023-02-24T04:07:58;33.58;;;19.70;;
14094;SDS011;18096;48.142;16.290;2023-02-24T04:10:33;30.60;;;19.63;;
14094;SDS011;18096;48.142;16.290;2023-02-24T04:13:22;28.98;;;17.92;;
14094;SDS011;18096;48.142;16.290;2023-02-24T04:16:00;29.92;;;18.10;;
14094;SDS011;18096;48.142;16.290;2023-02-24T04:18:33;34.33;;;19.52;;
14094;SDS011;18096;48.142;16.290;2023-02-24T04:20:59;37.33;;;18.65;;
14094;SDS011;18096;48.142;16.290;2023-02-24T04:23:29;40.92;;;20.58;;
14094;SDS011;18096;48.142;16.290;2023-02-24T04:26:07;41.97;;;20.52;;
14094;SDS011;18096;48.142;16.290;2023-02-24T04:28:36;37.60;;;19.33;;
14094;SDS011;18096;48.142;16.290;2023-02-24T04:31:05;36.40;;;19.23;;
14094;SDS011;18096;48.142;16.290;2023-02-24T04:33:35;27.83;;;18.38;;
14094;SDS011;18096;48.142;16.290;2023-02-24T04:36:02;28.25;;;18.70;;
14094;SDS011;18096;48.142;16.290;2023-02-24T04:38:29;33.45;;;19.27;;
14094;SDS011;18096;48.142;16.290;2023-02-24T04:40:55;35.45;;;18.90;;
14094;SDS011;18096;48.142;16.290;2023-02-24T04:43:21;31.75;;;19.42;;
14094;SDS011;18096;48.142;16.290;2023-02-24T04:45:47;26.70;;;17.83;;
14094;SDS011;18096;48.142;16.290;2023-02-24T04:48:15;39.72;;;19.10;;
14094;SDS011;18096;48.142;16.290;2023-02-24T04:50:43;36.10;;;19.50;;
14094;SDS011;18096;48.142;16.290;2023-02-24T04:53:11;31.75;;;17.73;;
14094;SDS011;18096;48.142;16.290;2023-02-24T04:55:39;34.83;;;19.17;;
14094;SDS011;18096;48.142;16.290;2023-02-24T04:58:13;40.85;;;17.92;;
14094;SDS011;18096;48.142;16.290;2023-02-24T05:00:44;30.77;;;18.55;;
14094;SDS011;18096;48.142;16.290;2023-02-24T05:03:25;31.30;;;19.00;;
14094;SDS011;18096;48.142;16.290;2023-02-24T05:05:54;27.60;;;17.73;;
14094;SDS011;18096;48.142;16.290;2023-02-24T05:08:22;41.15;;;19.00;;
14094;SDS011;18096;48.142;16.290;2023-02-24T05:10:48;31.88;;;18.88;;
14094;SDS011;18096;48.142;16.290;2023-02-24T05:13:16;30.35;;;17.33;;
14094;SDS011;18096;48.142;16.290;2023-02-24T05:15:44;35.45;;;19.38;;
14094;SDS011;18096;48.142;16.290;2023-02-24T05:18:12;33.90;;;19.80;;
14094;SDS011;18096;48.142;16.290;2023-02-24T05:20:42;33.03;;;19.67;;
14094;SDS011;18096;48.142;16.290;2023-02-24T05:23:32;28.42;;;18.30;;
14094;SDS011;18096;48.142;16.290;2023-02-24T05:26:04;30.55;;;19.50;;
14094;SDS011;18096;48.142;16.290;2023-02-24T05:28:33;29.95;;;18.40;;
14094;SDS011;18096;48.142;16.290;2023-02-24T05:31:14;35.88;;;20.08;;
14094;SDS011;18096;48.142;16.290;2023-02-24T05:33:44;37.08;;;20.05;;
14094;SDS011;18096;48.142;16.290;2023-02-24T05:36:12;31.30;;;19.80;;
14094;SDS011;18096;48.142;16.290;2023-02-24T05:38:41;31.35;;;19.60;;
14094;SDS011;18096;48.142;16.290;2023-02-24T05:41:12;32.83;;;20.63;;
14094;SDS011;18096;48.142;16.290;2023-02-24T05:43:42;35.97;;;19.80;;
14094;SDS011;18096;48.142;16.290;2023-02-24T05:46:12;35.03;;;19.70;;
14094;SDS011;18096;48.142;16.290;2023-02-24T05:48:39;38.53;;;20.50;;
14094;SDS011;18096;48.142;16.290;2023-02-24T05:51:05;34.80;;;19.90;;
14094;SDS011;18096;48.142;16.290;2023-02-24T05:53:36;34.22;;;20.50;;
14094;SDS011;18096;48.142;16.290;2023-02-24T05:56:08;33.92;;;19.80;;
14094;SDS011;18096;48.142;16.290;2023-02-24T05:58:34;32.97;;;19.33;;
14094;SDS011;18096;48.142;16.290;2023-02-24T06:01:10;36.20;;;19.73;;
14094;SDS011;18096;48.142;16.290;2023-02-24T06:03:41;34.17;;;20.15;;
14094;SDS011;18096;48.142;16.290;2023-02-24T06:06:11;35.72;;;19.73;;
14094;SDS011;18096;48.142;16.290;2023-02-24T06:08:37;37.08;;;21.88;;
14094;SDS011;18096;48.142;16.290;2023-02-24T06:11:14;64.28;;;30.38;;
14094;SDS011;18096;48.142;16.290;2023-02-24T06:13:42;42.80;;;23.92;;
14094;SDS011;18096;48.142;16.290;2023-02-24T06:16:15;56.72;;;30.55;;
14094;SDS011;18096;48.142;16.290;2023-02-24T06:18:42;57.38;;;30.73;;
14094;SDS011;18096;48.142;16.290;2023-02-24T06:21:11;55.40;;;29.30;;
14094;SDS011;18096;48.142;16.290;2023-02-24T06:23:38;59.47;;;31.90;;
14094;SDS011;18096;48.142;16.290;2023-02-24T06:26:04;59.53;;;29.00;;
14094;SDS011;18096;48.142;16.290;2023-02-24T06:28:37;59.22;;;28.92;;
14094;SDS011;18096;48.142;16.290;2023-02-24T06:31:04;45.17;;;26.33;;
14094;SDS011;18096;48.142;16.290;2023-02-24T06:33:34;48.08;;;25.00;;
14094;SDS011;18096;48.142;16.290;2023-02-24T06:36:01;42.90;;;23.23;;
14094;SDS011;18096;48.142;16.290;2023-02-24T06:38:29;43.53;;;22.67;;
14094;SDS011;18096;48.142;16.290;2023-02-24T06:40:56;40.88;;;23.58;;
14094;SDS011;18096;48.142;16.290;2023-02-24T06:43:23;37.30;;;21.43;;
14094;SDS011;18096;48.142;16.290;2023-02-24T06:45:48;39.30;;;21.40;;
14094;SDS011;18096;48.142;16.290;2023-02-24T06:48:14;39.97;;;22.15;;
14094;SDS011;18096;48.142;16.290;2023-02-24T06:50:40;41.67;;;23.73;;
14094;SDS011;18096;48.142;16.290;2023-02-24T06:53:05;35.97;;;22.30;;
14094;SDS011;18096;48.142;16.290;2023-02-24T06:55:40;44.85;;;21.88;;
14094;SDS011;18096;48.142;16.290;2023-02-24T06:58:17;37.67;;;20.65;;
14094;SDS011;18096;48.142;16.290;2023-02-24T07:00:44;38.37;;;20.43;;
14094;SDS011;18096;48.142;16.290;2023-02-24T07:03:21;44.85;;;23.85;;
14094;SDS011;18096;48.142;16.290;2023-02-24T07:05:50;46.63;;;25.88;;
14094;SDS011;18096;48.142;16.290;2023-02-24T07:08:36;53.13;;;27.65;;
14094;SDS011;18096;48.142;16.290;2023-02-24T07:11:02;51.25;;;26.80;;
14094;SDS011;18096;48.142;16.290;2023-02-24T07:13:31;44.55;;;22.92;;
14094;SDS011;18096;48.142;16.290;2023-02-24T07:16:00;41.25;;;23.83;;
14094;SDS011;18096;48.142;16.290;2023-02-24T07:18:31;46.60;;;23.25;;
14094;SDS011;18096;48.142;16.290;2023-02-24T07:21:04;44.55;;;22.13;;
14094;SDS011;18096;48.142;16.290;2023-02-24T07:23:36;42.60;;;22.35;;
14094;SDS011;18096;48.142;16.290;2023-02-24T07:26:07;38.72;;;21.10;;
14094;SDS011;18096;48.142;16.290;2023-02-24T07:28:37;37.78;;;20.35;;
14094;SDS011;18096;48.142;16.290;2023-02-24T07:31:05;38.85;;;21.02;;
14094;SDS011;18096;48.142;16.290;2023-02-24T07:33:35;33.27;;;20.83;;
14094;SDS011;18096;48.142;16.290;2023-02-24T07:36:03;40.55;;;21.13;;
14094;SDS011;18096;48.142;16.290;2023-02-24T07:38:34;35.65;;;21.02;;
14094;SDS011;18096;48.142;16.290;2023-02-24T07:41:04;38.78;;;21.55;;
14094;SDS011;18096;48.142;16.290;2023-02-24T07:43:34;34.25;;;21.25;;
14094;SDS011;18096;48.142;16.290;2023-02-24T07:46:04;34.88;;;20.48;;
14094;SDS011;18096;48.142;16.290;2023-02-24T07:48:49;41.15;;;20.60;;
14094;SDS011;18096;48.142;16.290;2023-02-24T07:51:17;35.88;;;20.73;;
14094;SDS011;18096;48.142;16.290;2023-02-24T07:53:48;48.67;;;23.67;;
14094;SDS011;18096;48.142;16.290;2023-02-24T07:56:17;44.45;;;23.67;;
14094;SDS011;18096;48.142;16.290;2023-02-24T07:58:45;38.63;;;22.95;;
14094;SDS011;18096;48.142;16.290;2023-02-24T08:01:16;41.20;;;23.77;;
14094;SDS011;18096;48.142;16.290;2023-02-24T08:03:49;33.33;;;20.33;;
14094;SDS011;18096;48.142;16.290;2023-02-24T08:06:19;36.85;;;21.33;;
14094;SDS011;18096;48.142;16.290;2023-02-24T08:09:02;37.70;;;20.20;;
14094;SDS011;18096;48.142;16.290;2023-02-24T08:11:41;35.33;;;21.83;;
14094;SDS011;18096;48.142;16.290;2023-02-24T08:14:16;38.90;;;20.27;;
14094;SDS011;18096;48.142;16.290;2023-02-24T08:16:48;37.28;;;21.42;;
14094;SDS011;18096;48.142;16.290;2023-02-24T08:19:24;43.25;;;21.73;;
14094;SDS011;18096;48.142;16.290;2023-02-24T08:21:57;34.65;;;20.83;;
14094;SDS011;18096;48.142;16.290;2023-02-24T08:24:43;30.27;;;18.10;;
14094;SDS011;18096;48.142;16.290;2023-02-24T08:27:15;36.47;;;18.83;;
14094;SDS011;18096;48.142;16.290;2023-02-24T08:29:46;36.53;;;19.25;;
14094;SDS011;18096;48.142;16.290;2023-02-24T08:32:32;29.02;;;16.75;;
14094;SDS011;18096;48.142;16.290;2023-02-24T08:35:05;30.63;;;16.10;;
14094;SDS011;18096;48.142;16.290;2023-02-24T08:37:39;33.22;;;16.65;;
14094;SDS011;18096;48.142;16.290;2023-02-24T08:40:27;32.47;;;17.00;;
14094;SDS011;18096;48.142;16.290;2023-02-24T08:43:03;27.10;;;15.88;;
14094;SDS011;18096;48.142;16.290;2023-02-24T08:48:13;28.83;;;15.45;;
14094;SDS011;18096;48.142;16.290;2023-02-24T08:50:50;28.05;;;15.70;;
14094;SDS011;18096;48.142;16.290;2023-02-24T08:53:26;26.35;;;15.45;;
14094;SDS011;18096;48.142;16.290;2023-02-24T08:55:59;30.05;;;14.85;;
14094;SDS011;18096;48.142;16.290;2023-02-24T08:58:33;28.80;;;15.98;;
14094;SDS011;18096;48.142;16.290;2023-02-24T09:01:03;29.02;;;14.20;;
14094;SDS011;18096;48.142;16.290;2023-02-24T09:03:29;27.38;;;14.85;;
14094;SDS011;18096;48.142;16.290;2023-02-24T09:06:02;21.25;;;14.38;;
14094;SDS011;18096;48.142;16.290;2023-02-24T09:08:31;26.70;;;15.25;;
14094;SDS011;18096;48.142;16.290;2023-02-24T09:10:58;34.43;;;14.50;;
14094;SDS011;18096;48.142;16.290;2023-02-24T09:13:25;22.48;;;12.90;;
14094;SDS011;18096;48.142;16.290;2023-02-24T09:16:01;23.95;;;14.60;;
14094;SDS011;18096;48.142;16.290;2023-02-24T09:18:28;28.97;;;15.90;;
14094;SDS011;18096;48.142;16.290;2023-02-24T09:20:57;29.42;;;14.98;;
14094;SDS011;18096;48.142;16.290;2023-02-24T09:23:41;24.90;;;13.80;;
14094;SDS011;18096;48.142;16.290;2023-02-24T09:26:10;31.75;;;13.30;;
14094;SDS011;18096;48.142;16.290;2023-02-24T09:28:38;22.20;;;13.07;;
14094;SDS011;18096;48.142;16.290;2023-02-24T09:31:18;25.70;;;13.33;;
14094;SDS011;18096;48.142;16.290;2023-02-24T09:33:48;23.60;;;13.20;;
14094;SDS011;18096;48.142;16.290;2023-02-24T09:36:18;19.33;;;12.45;;
14094;SDS011;18096;48.142;16.290;2023-02-24T09:38:52;26.23;;;12.35;;
14094;SDS011;18096;48.142;16.290;2023-02-24T09:47:02;17.10;;;11.40;;
14094;SDS011;18096;48.142;16.290;2023-02-24T09:52:43;20.27;;;11.77;;
14094;SDS011;18096;48.142;16.290;2023-02-24T10:00:40;19.37;;;9.90;;
14094;SDS011;18096;48.142;16.290;2023-02-24T10:03:35;18.25;;;10.73;;
14094;SDS011;18096;48.142;16.290;2023-02-24T10:06:18;18.48;;;11.50;;
14094;SDS011;18096;48.142;16.290;2023-02-24T10:12:32;10.25;;;8.65;;
14094;SDS011;18096;48.142;16.290;2023-02-24T10:15:08;14.07;;;9.32;;
14094;SDS011;18096;48.142;16.290;2023-02-24T10:17:55;12.57;;;7.90;;
14094;SDS011;18096;48.142;16.290;2023-02-24T10:20:23;14.38;;;7.68;;
14094;SDS011;18096;48.142;16.290;2023-02-24T10:31:49;11.73;;;7.88;;
14094;SDS011;18096;48.142;16.290;2023-02-24T10:34:23;12.02;;;7.90;;
14094;SDS011;18096;48.142;16.290;2023-02-24T10:37:00;12.60;;;7.45;;
14094;SDS011;18096;48.142;16.290;2023-02-24T10:39:34;18.77;;;7.87;;
14094;SDS011;18096;48.142;16.290;2023-02-24T10:42:00;15.50;;;7.10;;
14094;SDS011;18096;48.142;16.290;2023-02-24T10:44:41;11.40;;;6.70;;
14094;SDS011;18096;48.142;16.290;2023-02-24T10:47:19;16.83;;;6.90;;
14094;SDS011;18096;48.142;16.290;2023-02-24T10:50:50;19.60;;;6.15;;
14094;SDS011;18096;48.142;16.290;2023-02-24T10:53:10;9.88;;;6.60;;
14094;SDS011;18096;48.142;16.290;2023-02-24T10:55:54;8.60;;;6.20;;
14094;SDS011;18096;48.142;16.290;2023-02-24T10:58:42;9.90;;;6.88;;
14094;SDS011;18096;48.142;16.290;2023-02-24T11:01:13;13.50;;;7.03;;
14094;SDS011;18096;48.142;16.290;2023-02-24T11:04:05;9.43;;;7.00;;
14094;SDS011;18096;48.142;16.290;2023-02-24T11:07:09;8.80;;;6.50;;
14094;SDS011;18096;48.142;16.290;2023-02-24T11:09:48;9.88;;;6.43;;
14094;SDS011;18096;48.142;16.290;2023-02-24T11:12:46;8.45;;;5.95;;
14094;SDS011;18096;48.142;16.290;2023-02-24T11:15:32;9.48;;;6.03;;
14094;SDS011;18096;48.142;16.290;2023-02-24T11:18:23;8.27;;;6.20;;
14094;SDS011;18096;48.142;16.290;2023-02-24T11:23:23;8.20;;;5.43;;
14094;SDS011;18096;48.142;16.290;2023-02-24T11:25:59;9.43;;;5.30;;
14094;SDS011;18096;48.142;16.290;2023-02-24T11:29:39;6.37;;;5.50;;
14094;SDS011;18096;48.142;16.290;2023-02-24T11:40:14;8.15;;;5.10;;
14094;SDS011;18096;48.142;16.290;2023-02-24T11:45:44;8.07;;;5.28;;
14094;SDS011;18096;48.142;16.290;2023-02-24T11:48:18;9.35;;;5.82;;
14094;SDS011;18096;48.142;16.290;2023-02-24T12:01:51;7.57;;;4.63;;
14094;SDS011;18096;48.142;16.290;2023-02-24T12:04:31;9.43;;;5.03;;
14094;SDS011;18096;48.142;16.290;2023-02-24T12:09:54;10.23;;;5.00;;
14094;SDS011;18096;48.142;16.290;2023-02-24T12:15:42;9.68;;;5.20;;
14094;SDS011;18096;48.142;16.290;2023-02-24T12:21:02;12.50;;;4.93;;
14094;SDS011;18096;48.142;16.290;2023-02-24T12:23:50;9.50;;;5.40;;
14094;SDS011;18096;48.142;16.290;2023-02-24T12:26:21;8.93;;;5.90;;
14094;SDS011;18096;48.142;16.290;2023-02-24T12:35:11;7.53;;;5.63;;
14094;SDS011;18096;48.142;16.290;2023-02-24T12:40:41;14.18;;;6.30;;
14094;SDS011;18096;48.142;16.290;2023-02-24T12:45:55;13.70;;;6.20;;
14094;SDS011;18096;48.142;16.290;2023-02-24T12:54:13;7.82;;;5.28;;
14094;SDS011;18096;48.142;16.290;2023-02-24T12:56:45;9.85;;;5.35;;
14094;SDS011;18096;48.142;16.290;2023-02-24T12:59:21;11.93;;;5.60;;
14094;SDS011;18096;48.142;16.290;2023-02-24T13:06:58;11.63;;;5.72;;
14094;SDS011;18096;48.142;16.290;2023-02-24T13:14:48;10.90;;;5.30;;
14094;SDS011;18096;48.142;16.290;2023-02-24T13:17:16;6.80;;;5.10;;
14094;SDS011;18096;48.142;16.290;2023-02-24T13:19:44;14.25;;;5.18;;
14094;SDS011;18096;48.142;16.290;2023-02-24T13:24:40;7.05;;;5.05;;
14094;SDS011;18096;48.142;16.290;2023-02-24T13:29:46;7.10;;;3.90;;
14094;SDS011;18096;48.142;16.290;2023-02-24T13:32:30;5.22;;;2.70;;
14094;SDS011;18096;48.142;16.290;2023-02-24T13:37:40;8.50;;;3.33;;
14094;SDS011;18096;48.142;16.290;2023-02-24T13:45:24;4.82;;;3.10;;
14094;SDS011;18096;48.142;16.290;2023-02-24T13:51:03;3.30;;;2.92;;
14094;SDS011;18096;48.142;16.290;2023-02-24T13:54:52;4.80;;;3.15;;
14094;SDS011;18096;48.142;16.290;2023-02-24T14:01:59;5.60;;;3.33;;
14094;SDS011;18096;48.142;16.290;2023-02-24T14:04:55;3.83;;;3.20;;
14094;SDS011;18096;48.142;16.290;2023-02-24T14:07:28;5.65;;;3.67;;
14094;SDS011;18096;48.142;16.290;2023-02-24T14:10:01;5.10;;;3.00;;
14094;SDS011;18096;48.142;16.290;2023-02-24T14:12:40;5.50;;;3.13;;
14094;SDS011;18096;48.142;16.290;2023-02-24T14:15:19;3.40;;;2.88;;
14094;SDS011;18096;48.142;16.290;2023-02-24T14:17:57;6.00;;;3.60;;
14094;SDS011;18096;48.142;16.290;2023-02-24T14:20:25;5.25;;;3.60;;
14094;SDS011;18096;48.142;16.290;2023-02-24T14:22:53;5.25;;;3.05;;
14094;SDS011;18096;48.142;16.290;2023-02-24T14:25:26;4.68;;;3.42;;
14094;SDS011;18096;48.142;16.290;2023-02-24T14:27:59;3.90;;;2.85;;
14094;SDS011;18096;48.142;16.290;2023-02-24T14:30:38;3.53;;;3.22;;
14094;SDS011;18096;48.142;16.290;2023-02-24T14:33:05;7.07;;;3.15;;
14094;SDS011;18096;48.142;16.290;2023-02-24T14:35:36;5.10;;;3.00;;
14094;SDS011;18096;48.142;16.290;2023-02-24T14:38:16;12.00;;;2.90;;
14094;SDS011;18096;48.142;16.290;2023-02-24T14:41:05;5.53;;;3.50;;
14094;SDS011;18096;48.142;16.290;2023-02-24T14:43:42;7.50;;;3.30;;
14094;SDS011;18096;48.142;16.290;2023-02-24T14:46:07;5.33;;;3.23;;
14094;SDS011;18096;48.142;16.290;2023-02-24T14:48:33;7.82;;;3.80;;
14094;SDS011;18096;48.142;16.290;2023-02-24T14:51:04;4.57;;;3.72;;
14094;SDS011;18096;48.142;16.290;2023-02-24T14:53:35;6.78;;;3.42;;
14094;SDS011;18096;48.142;16.290;2023-02-24T14:56:07;5.00;;;3.90;;
14094;SDS011;18096;48.142;16.290;2023-02-24T14:58:44;10.73;;;3.70;;
14094;SDS011;18096;48.142;16.290;2023-02-24T15:01:21;6.43;;;3.77;;
14094;SDS011;18096;48.142;16.290;2023-02-24T15:03:59;8.57;;;4.23;;
14094;SDS011;18096;48.142;16.290;2023-02-24T15:06:34;7.32;;;4.03;;
14094;SDS011;18096;48.142;16.290;2023-02-24T15:09:15;9.57;;;4.32;;
14094;SDS011;18096;48.142;16.290;2023-02-24T15:11:45;10.85;;;4.70;;
14094;SDS011;18096;48.142;16.290;2023-02-24T15:14:19;4.40;;;4.00;;
14094;SDS011;18096;48.142;16.290;2023-02-24T15:16:55;5.60;;;3.40;;
14094;SDS011;18096;48.142;16.290;2023-02-24T15:19:26;7.97;;;4.20;;
14094;SDS011;18096;48.142;16.290;2023-02-24T15:21:57;9.70;;;3.30;;
14094;SDS011;18096;48.142;16.290;2023-02-24T15:24:27;4.15;;;3.80;;
14094;SDS011;18096;48.142;16.290;2023-02-24T15:26:56;3.90;;;3.50;;
14094;SDS011;18096;48.142;16.290;2023-02-24T15:29:55;8.23;;;3.72;;
14094;SDS011;18096;48.142;16.290;2023-02-24T15:32:24;6.60;;;4.30;;
14094;SDS011;18096;48.142;16.290;2023-02-24T15:34:52;5.50;;;4.30;;
14094;SDS011;18096;48.142;16.290;2023-02-24T15:37:21;4.40;;;3.97;;
14094;SDS011;18096;48.142;16.290;2023-02-24T15:39:49;5.27;;;4.17;;
14094;SDS011;18096;48.142;16.290;2023-02-24T15:42:29;5.20;;;4.70;;
14094;SDS011;18096;48.142;16.290;2023-02-24T15:44:58;7.53;;;4.30;;
14094;SDS011;18096;48.142;16.290;2023-02-24T15:47:27;8.80;;;3.85;;
14094;SDS011;18096;48.142;16.290;2023-02-24T15:49:57;4.25;;;3.85;;
14094;SDS011;18096;48.142;16.290;2023-02-24T15:52:24;4.57;;;3.40;;
14094;SDS011;18096;48.142;16.290;2023-02-24T15:54:52;8.55;;;4.47;;
14094;SDS011;18096;48.142;16.290;2023-02-24T15:57:19;3.47;;;3.20;;
14094;SDS011;18096;48.142;16.290;2023-02-24T15:59:46;4.55;;;3.50;;
14094;SDS011;18096;48.142;16.290;2023-02-24T16:02:13;4.65;;;3.45;;
14094;SDS011;18096;48.142;16.290;2023-02-24T16:04:42;5.82;;;3.55;;
14094;SDS011;18096;48.142;16.290;2023-02-24T16:07:14;6.45;;;3.97;;
14094;SDS011;18096;48.142;16.290;2023-02-24T16:09:45;8.00;;;3.22;;
14094;SDS011;18096;48.142;16.290;2023-02-24T16:15:13;6.25;;;3.80;;
14094;SDS011;18096;48.142;16.290;2023-02-24T16:17:44;5.25;;;3.60;;
14094;SDS011;18096;48.142;16.290;2023-02-24T16:20:19;6.40;;;3.67;;
14094;SDS011;18096;48.142;16.290;2023-02-24T16:22:52;12.25;;;3.60;;
14094;SDS011;18096;48.142;16.290;2023-02-24T16:25:37;7.35;;;3.72;;
14094;SDS011;18096;48.142;16.290;2023-02-24T16:28:05;5.93;;;3.40;;
14094;SDS011;18096;48.142;16.290;2023-02-24T16:30:31;3.60;;;3.30;;
14094;SDS011;18096;48.142;16.290;2023-02-24T16:32:59;7.00;;;3.90;;
14094;SDS011;18096;48.142;16.290;2023-02-24T16:35:26;4.28;;;3.60;;
14094;SDS011;18096;48.142;16.290;2023-02-24T16:37:53;4.90;;;3.65;;
14094;SDS011;18096;48.142;16.290;2023-02-24T16:40:20;3.90;;;3.60;;
14094;SDS011;18096;48.142;16.290;2023-02-24T16:42:52;4.68;;;3.30;;
14094;SDS011;18096;48.142;16.290;2023-02-24T16:45:18;4.30;;;3.40;;
14094;SDS011;18096;48.142;16.290;2023-02-24T16:47:45;8.15;;;3.88;;
14094;SDS011;18096;48.142;16.290;2023-02-24T16:50:32;5.63;;;2.90;;
14094;SDS011;18096;48.142;16.290;2023-02-24T16:53:05;10.73;;;3.65;;
14094;SDS011;18096;48.142;16.290;2023-02-24T16:55:32;4.15;;;3.72;;
14094;SDS011;18096;48.142;16.290;2023-02-24T16:57:58;6.90;;;3.90;;
14094;SDS011;18096;48.142;16.290;2023-02-24T17:00:24;8.55;;;4.38;;
14094;SDS011;18096;48.142;16.290;2023-02-24T17:02:50;7.60;;;4.40;;
14094;SDS011;18096;48.142;16.290;2023-02-24T17:05:18;6.20;;;3.97;;
14094;SDS011;18096;48.142;16.290;2023-02-24T17:07:48;7.75;;;3.72;;
14094;SDS011;18096;48.142;16.290;2023-02-24T17:10:16;9.07;;;5.05;;
14094;SDS011;18096;48.142;16.290;2023-02-24T17:12:43;5.43;;;3.83;;
14094;SDS011;18096;48.142;16.290;2023-02-24T17:15:13;8.38;;;4.93;;